Time;durP1;ratioP1;P1;durP2;ratioP2;P2;SDS_P1;SDS_P2;PMS_P1;PMS_P2;Temp;Humidity;BMP_temperature;BMP_pressure;BME280_temperature;BME280_humidity;BME280_pressure;Samples;Min_cycle;Max_cycle;Signal;HPM_P1;HPM_P2
2024/01/18 00:01:54;;;;;;;43.67;27.00;;;6.70;99.90;;;;;;6185766;23;20569;-59
2024/01/18 00:04:22;;;;;;;42.17;27.13;;;6.70;99.90;;;;;;6185632;23;20178;-60
2024/01/18 00:06:49;;;;;;;40.77;27.23;;;6.70;99.90;;;;;;6159682;23;20184;-59
2024/01/18 00:09:16;;;;;;;42.93;26.97;;;6.70;99.90;;;;;;6160182;23;20263;-60
2024/01/18 00:11:43;;;;;;;41.77;26.20;;;6.70;99.90;;;;;;6185872;23;20595;-59
2024/01/18 00:14:10;;;;;;;42.13;27.10;;;6.70;99.90;;;;;;6187165;23;20289;-60
2024/01/18 00:16:37;;;;;;;42.80;25.77;;;6.70;99.90;;;;;;6187867;23;20469;-60
2024/01/18 00:19:07;;;;;;;42.33;27.90;;;6.70;99.90;;;;;;6187449;23;20207;-60
2024/01/18 00:21:34;;;;;;;49.90;26.47;;;6.70;99.90;;;;;;6187668;23;20243;-60
2024/01/18 00:24:01;;;;;;;43.10;28.00;;;6.70;99.90;;;;;;6188715;23;20168;-60
2024/01/18 00:26:28;;;;;;;44.63;27.13;;;6.80;99.90;;;;;;6188136;23;20508;-60
2024/01/18 00:28:55;;;;;;;40.67;26.70;;;6.80;99.90;;;;;;6188162;23;20176;-59
2024/01/18 00:31:23;;;;;;;44.60;27.07;;;6.80;99.90;;;;;;6187460;23;20172;-59
2024/01/18 00:33:50;;;;;;;46.13;27.57;;;6.80;99.90;;;;;;6187831;23;20603;-59
2024/01/18 00:36:17;;;;;;;50.37;26.87;;;6.80;99.90;;;;;;6187544;23;20650;-59
2024/01/18 00:38:44;;;;;;;41.90;28.90;;;6.80;99.90;;;;;;6187693;23;20207;-59
2024/01/18 00:41:11;;;;;;;44.10;26.23;;;6.80;99.90;;;;;;6188337;23;20222;-59
2024/01/18 00:43:39;;;;;;;42.27;28.13;;;6.80;99.90;;;;;;6187564;23;20173;-60
2024/01/18 00:46:06;;;;;;;50.77;29.60;;;6.80;99.90;;;;;;6187806;23;20167;-59
2024/01/18 00:48:33;;;;;;;45.33;27.30;;;6.80;99.90;;;;;;6187513;23;20168;-59
2024/01/18 00:51:01;;;;;;;49.20;28.77;;;6.80;99.90;;;;;;6188189;23;20203;-59
2024/01/18 00:53:28;;;;;;;52.60;28.60;;;6.80;99.90;;;;;;6187470;23;20172;-59
2024/01/18 00:55:55;;;;;;;59.63;31.33;;;6.80;99.90;;;;;;6188134;23;20176;-59
2024/01/18 00:58:22;;;;;;;63.17;31.53;;;6.80;99.90;;;;;;6187457;23;20167;-59
2024/01/18 01:00:49;;;;;;;60.90;28.67;;;6.80;99.90;;;;;;6187589;23;20188;-59
2024/01/18 01:03:16;;;;;;;70.73;32.17;;;6.70;99.90;;;;;;6187701;23;20196;-59
2024/01/18 01:05:43;;;;;;;70.77;35.07;;;6.70;99.90;;;;;;6187269;23;20782;-60
2024/01/18 01:08:10;;;;;;;78.80;33.57;;;6.60;99.90;;;;;;6187940;23;20171;-60
2024/01/18 01:10:38;;;;;;;77.83;32.90;;;6.60;99.90;;;;;;6187184;23;20239;-59
2024/01/18 01:13:05;;;;;;;68.43;32.60;;;6.50;99.90;;;;;;6187665;23;20250;-59
2024/01/18 01:15:33;;;;;;;71.43;32.83;;;6.40;99.90;;;;;;6187206;23;20210;-59
2024/01/18 01:18:00;;;;;;;65.67;32.03;;;6.40;99.90;;;;;;6187779;23;20182;-59
2024/01/18 01:20:27;;;;;;;61.23;30.80;;;6.30;99.90;;;;;;6187112;23;20175;-60
2024/01/18 01:22:54;;;;;;;61.00;31.43;;;6.30;99.90;;;;;;6187687;23;20538;-59
2024/01/18 01:25:22;;;;;;;51.60;31.03;;;6.30;99.90;;;;;;6187256;23;20262;-59
2024/01/18 01:27:50;;;;;;;54.10;29.93;;;6.30;99.90;;;;;;6187627;23;20237;-59
2024/01/18 01:30:17;;;;;;;58.13;29.73;;;6.20;99.90;;;;;;6187281;23;20180;-59
2024/01/18 01:32:44;;;;;;;53.67;31.30;;;6.20;99.90;;;;;;6187380;23;20200;-59
2024/01/18 01:35:12;;;;;;;57.00;33.43;;;6.30;99.90;;;;;;6187269;23;20221;-59
2024/01/18 01:37:39;;;;;;;57.13;32.33;;;6.20;99.90;;;;;;6187380;23;20227;-59
2024/01/18 01:40:07;;;;;;;53.23;30.70;;;6.20;99.90;;;;;;6187359;23;20592;-60
2024/01/18 01:42:34;;;;;;;57.00;33.13;;;6.20;99.90;;;;;;6187059;23;20246;-60
2024/01/18 01:45:02;;;;;;;54.47;31.27;;;6.20;99.90;;;;;;6187326;23;20178;-59
2024/01/18 01:47:29;;;;;;;52.13;31.03;;;6.20;99.90;;;;;;6161046;23;20172;-59
2024/01/18 01:49:57;;;;;;;52.77;31.33;;;6.20;99.90;;;;;;6186978;23;20179;-59
2024/01/18 01:52:25;;;;;;;54.23;31.43;;;6.20;99.90;;;;;;6187132;23;20188;-59
2024/01/18 01:54:52;;;;;;;53.50;32.17;;;6.20;99.90;;;;;;6187109;23;20209;-59
2024/01/18 01:57:20;;;;;;;50.47;31.40;;;6.20;99.90;;;;;;6187051;23;20175;-59
2024/01/18 01:59:49;;;;;;;52.53;30.60;;;6.20;99.90;;;;;;6186669;23;20646;-59
2024/01/18 02:02:17;;;;;;;52.03;30.83;;;6.10;99.90;;;;;;6187124;23;20183;-59
2024/01/18 02:04:44;;;;;;;45.30;28.20;;;6.20;99.90;;;;;;6186809;23;20217;-59
2024/01/18 02:07:12;;;;;;;42.93;27.43;;;6.20;99.90;;;;;;6186893;23;20171;-59
2024/01/18 02:09:40;;;;;;;40.37;28.03;;;6.20;99.90;;;;;;6187202;23;20584;-59
2024/01/18 02:12:09;;;;;;;50.13;27.77;;;6.20;99.90;;;;;;6186937;23;20185;-60
2024/01/18 02:14:37;;;;;;;45.27;26.27;;;6.10;99.90;;;;;;6187215;23;20195;-59
2024/01/18 02:17:06;;;;;;;42.83;27.20;;;6.10;99.90;;;;;;6186598;23;20175;-59
2024/01/18 02:19:34;;;;;;;46.30;27.97;;;6.10;99.90;;;;;;6186849;23;20189;-59
2024/01/18 02:22:03;;;;;;;49.90;31.47;;;6.10;99.90;;;;;;6184546;23;20171;-60
2024/01/18 02:24:40;;;;;;;48.93;30.03;;;6.10;99.90;;;;;;6186788;23;20595;-59
2024/01/18 02:27:07;;;;;;;52.17;31.87;;;6.10;99.90;;;;;;6186793;23;20195;-59
2024/01/18 02:29:34;;;;;;;51.17;31.97;;;6.10;99.90;;;;;;6161196;23;20175;-59
2024/01/18 02:32:02;;;;;;;51.47;31.50;;;6.00;99.90;;;;;;6186282;23;20175;-59
2024/01/18 02:34:29;;;;;;;49.30;32.60;;;6.00;99.90;;;;;;6186960;23;20262;-59
2024/01/18 02:36:56;;;;;;;62.37;34.20;;;6.00;99.90;;;;;;6159527;23;20215;-59
2024/01/18 02:39:24;;;;;;;51.23;34.47;;;6.00;99.90;;;;;;6186551;23;20453;-59
2024/01/18 02:41:51;;;;;;;54.07;34.50;;;6.00;99.90;;;;;;6186794;23;20182;-59
2024/01/18 02:44:18;;;;;;;57.37;36.20;;;6.00;99.90;;;;;;6186835;23;20253;-59
2024/01/18 02:46:46;;;;;;;63.57;37.20;;;6.00;99.90;;;;;;6135896;23;20242;-60
2024/01/18 02:49:14;;;;;;;61.07;38.30;;;6.00;99.90;;;;;;6187196;23;20483;-59
2024/01/18 02:51:41;;;;;;;58.70;36.83;;;6.00;99.90;;;;;;6186870;23;20181;-59
2024/01/18 02:54:08;;;;;;;64.23;39.23;;;6.00;99.90;;;;;;6186256;23;20262;-59
2024/01/18 02:56:37;;;;;;;63.73;38.93;;;6.00;99.90;;;;;;6186649;23;20238;-59
2024/01/18 02:59:05;;;;;;;71.37;41.83;;;6.00;99.90;;;;;;6186425;23;20622;-59
2024/01/18 03:01:32;;;;;;;62.30;38.27;;;6.00;99.90;;;;;;6186677;23;20230;-59
2024/01/18 03:03:59;;;;;;;64.30;39.93;;;6.00;99.90;;;;;;6186247;23;20189;-59
2024/01/18 03:06:26;;;;;;;64.00;39.60;;;6.00;99.90;;;;;;6186359;23;20611;-60
2024/01/18 03:08:53;;;;;;;64.77;41.30;;;6.00;99.90;;;;;;6186537;23;20167;-59
2024/01/18 03:11:20;;;;;;;69.47;42.77;;;6.00;99.90;;;;;;6186042;23;20679;-59
2024/01/18 03:13:47;;;;;;;74.67;41.43;;;6.00;99.90;;;;;;6185945;23;20171;-59
2024/01/18 03:16:15;;;;;;;72.17;43.13;;;6.00;99.90;;;;;;6186109;23;20205;-59
2024/01/18 03:18:43;;;;;;;66.43;40.80;;;6.00;99.90;;;;;;6186116;23;20225;-59
2024/01/18 03:21:11;;;;;;;75.03;43.47;;;6.00;99.90;;;;;;6186585;23;20175;-59
2024/01/18 03:23:38;;;;;;;75.37;42.97;;;6.00;99.90;;;;;;6186170;23;20178;-59
2024/01/18 03:26:05;;;;;;;69.73;41.07;;;6.10;99.90;;;;;;6186215;23;20490;-59
2024/01/18 03:28:32;;;;;;;70.27;42.60;;;6.00;99.90;;;;;;6186055;23;20179;-59
2024/01/18 03:30:59;;;;;;;68.17;41.50;;;6.10;99.90;;;;;;6186496;23;20480;-60
2024/01/18 03:33:26;;;;;;;65.70;40.93;;;6.10;99.90;;;;;;6186255;23;20237;-59
2024/01/18 03:35:55;;;;;;;66.93;39.67;;;6.10;99.90;;;;;;6185876;23;20205;-59
2024/01/18 03:38:22;;;;;;;66.37;41.53;;;6.10;99.90;;;;;;6186662;23;20189;-59
2024/01/18 03:40:49;;;;;;;68.50;41.83;;;6.10;99.90;;;;;;6185989;23;20182;-60
2024/01/18 03:43:16;;;;;;;68.97;42.83;;;6.10;99.90;;;;;;6186515;23;20172;-59
2024/01/18 03:45:43;;;;;;;65.63;41.50;;;6.10;99.90;;;;;;6185931;23;20179;-59
2024/01/18 03:48:10;;;;;;;69.70;40.40;;;6.20;99.90;;;;;;6186043;23;20178;-59
2024/01/18 03:50:37;;;;;;;68.30;40.50;;;6.20;99.90;;;;;;6185954;23;20609;-59
2024/01/18 03:53:04;;;;;;;73.30;43.20;;;6.20;99.90;;;;;;6185979;23;20171;-60
2024/01/18 03:55:31;;;;;;;63.30;40.13;;;6.20;99.90;;;;;;6185772;23;20190;-59
2024/01/18 03:57:59;;;;;;;66.87;39.60;;;6.20;99.90;;;;;;6186107;23;20171;-59
2024/01/18 04:00:26;;;;;;;74.83;43.37;;;6.20;99.90;;;;;;6185756;23;20233;-59
2024/01/18 04:02:53;;;;;;;67.50;41.83;;;6.20;99.90;;;;;;6186501;23;20262;-59
2024/01/18 04:05:20;;;;;;;76.60;42.97;;;6.20;99.90;;;;;;6185548;23;20283;-59
2024/01/18 04:07:47;;;;;;;74.10;43.00;;;6.20;99.90;;;;;;6186505;23;20175;-59
2024/01/18 04:10:14;;;;;;;74.20;41.17;;;6.20;99.90;;;;;;6185931;23;20175;-59
2024/01/18 04:12:42;;;;;;;70.30;39.60;;;6.20;99.90;;;;;;6186140;23;20230;-60
2024/01/18 04:15:10;;;;;;;67.67;38.33;;;6.20;99.90;;;;;;6186085;23;20207;-60
2024/01/18 04:17:37;;;;;;;64.37;38.80;;;6.20;99.90;;;;;;6186346;23;20171;-60
2024/01/18 04:20:06;;;;;;;66.73;38.13;;;6.10;99.90;;;;;;6185832;23;20190;-59
2024/01/18 04:22:33;;;;;;;66.23;37.43;;;6.10;99.90;;;;;;6186168;23;20191;-59
2024/01/18 04:25:00;;;;;;;64.83;36.80;;;6.10;99.90;;;;;;6185869;23;20189;-59
2024/01/18 04:27:28;;;;;;;62.00;35.77;;;6.10;99.90;;;;;;6186043;23;20603;-59
2024/01/18 04:29:55;;;;;;;62.20;34.40;;;6.10;99.90;;;;;;6186034;23;20176;-59
2024/01/18 04:32:22;;;;;;;53.17;32.37;;;6.10;99.90;;;;;;6185500;23;20178;-59
2024/01/18 04:34:49;;;;;;;58.10;31.93;;;6.10;99.90;;;;;;6185699;23;20266;-59
2024/01/18 04:37:17;;;;;;;53.77;28.60;;;6.10;99.90;;;;;;6185884;23;20175;-59
2024/01/18 04:39:44;;;;;;;47.40;28.00;;;6.10;99.90;;;;;;6185729;23;20167;-59
2024/01/18 04:42:11;;;;;;;50.33;26.93;;;6.10;99.90;;;;;;6185740;23;20180;-60
2024/01/18 04:44:39;;;;;;;35.50;22.33;;;6.10;99.90;;;;;;6185766;23;20534;-59
2024/01/18 04:47:07;;;;;;;39.93;23.67;;;6.10;99.90;;;;;;6185945;23;20572;-59
2024/01/18 04:49:34;;;;;;;32.33;20.03;;;6.10;99.90;;;;;;6185969;23;20176;-60
2024/01/18 04:52:02;;;;;;;33.63;20.67;;;6.10;99.90;;;;;;6186222;23;20172;-59
2024/01/18 04:54:29;;;;;;;32.60;20.30;;;6.10;99.90;;;;;;6186048;23;20208;-59
2024/01/18 04:56:56;;;;;;;34.03;21.20;;;6.10;99.90;;;;;;6160039;23;20176;-60
2024/01/18 04:59:23;;;;;;;33.33;20.50;;;6.10;99.90;;;;;;6186297;23;20167;-59
2024/01/18 05:01:50;;;;;;;30.97;19.77;;;6.10;99.90;;;;;;6187541;23;20584;-60
2024/01/18 05:04:18;;;;;;;36.73;20.67;;;6.10;99.90;;;;;;6187650;23;20184;-59
2024/01/18 05:06:46;;;;;;;30.57;19.33;;;6.10;99.90;;;;;;6187704;23;20160;-59
2024/01/18 05:09:16;;;;;;;27.07;18.03;;;6.20;99.90;;;;;;6187596;23;20253;-59
2024/01/18 05:11:44;;;;;;;21.60;15.27;;;6.20;99.90;;;;;;6187244;23;20170;-59
2024/01/18 05:14:11;;;;;;;21.83;14.77;;;6.20;99.90;;;;;;6187716;23;20238;-59
2024/01/18 05:16:40;;;;;;;21.37;14.37;;;6.20;99.90;;;;;;6187177;23;20234;-59
2024/01/18 05:19:11;;;;;;;18.70;13.60;;;6.10;99.90;;;;;;6187674;23;20171;-59
2024/01/18 05:21:38;;;;;;;20.90;14.80;;;6.10;99.90;;;;;;6187535;23;20173;-60
2024/01/18 05:24:05;;;;;;;20.20;13.57;;;6.10;99.90;;;;;;6188006;23;20172;-59
2024/01/18 05:26:32;;;;;;;21.17;14.87;;;6.10;99.90;;;;;;6187067;23;20178;-60
2024/01/18 05:29:00;;;;;;;18.10;13.50;;;6.10;99.90;;;;;;6187194;23;20184;-59
2024/01/18 05:31:27;;;;;;;17.20;13.47;;;6.10;99.90;;;;;;6186868;23;20179;-59
2024/01/18 05:33:56;;;;;;;19.90;14.03;;;6.10;99.90;;;;;;6187642;23;20183;-59
2024/01/18 05:36:23;;;;;;;19.80;14.47;;;6.10;99.90;;;;;;6187269;23;20271;-60
2024/01/18 05:38:50;;;;;;;21.27;15.13;;;6.10;99.90;;;;;;6187178;23;20217;-60
2024/01/18 05:41:17;;;;;;;18.77;13.80;;;6.10;99.90;;;;;;6186972;23;20603;-60
2024/01/18 05:43:44;;;;;;;18.37;13.57;;;6.00;99.90;;;;;;6187621;23;20583;-59
2024/01/18 05:46:11;;;;;;;16.80;12.80;;;6.00;99.90;;;;;;6186955;23;20179;-59
2024/01/18 05:48:38;;;;;;;19.67;13.80;;;6.00;99.90;;;;;;6187229;23;20634;-59
2024/01/18 05:51:06;;;;;;;18.47;13.50;;;6.00;99.90;;;;;;6187104;23;20221;-59
2024/01/18 05:53:33;;;;;;;19.23;13.77;;;5.90;99.90;;;;;;6161550;23;20221;-60
2024/01/18 05:56:00;;;;;;;18.60;14.80;;;5.90;99.90;;;;;;6186965;23;20190;-59
2024/01/18 05:58:30;;;;;;;21.33;15.47;;;5.90;99.90;;;;;;6187285;23;20679;-60
2024/01/18 06:00:58;;;;;;;17.30;12.87;;;5.90;99.90;;;;;;6187461;23;20242;-60
2024/01/18 06:03:25;;;;;;;19.23;14.13;;;5.90;99.90;;;;;;6186882;23;20241;-59
2024/01/18 06:05:52;;;;;;;19.77;14.27;;;5.90;99.90;;;;;;6187121;23;20670;-60
2024/01/18 06:08:19;;;;;;;18.13;13.63;;;5.90;99.90;;;;;;6187012;23;20523;-60
2024/01/18 06:10:46;;;;;;;17.53;13.47;;;5.90;99.90;;;;;;6187175;23;20187;-60
2024/01/18 06:13:13;;;;;;;17.77;13.13;;;5.90;99.90;;;;;;6186598;23;20237;-60
2024/01/18 06:15:40;;;;;;;15.90;12.53;;;6.00;99.90;;;;;;6187096;23;20253;-59
2024/01/18 06:18:07;;;;;;;15.50;11.60;;;6.00;99.90;;;;;;6186329;23;20191;-59
2024/01/18 06:20:35;;;;;;;14.87;12.30;;;6.00;99.90;;;;;;6187175;23;20165;-59
2024/01/18 06:23:02;;;;;;;16.93;12.10;;;6.00;99.90;;;;;;6186421;23;20469;-59
2024/01/18 06:25:29;;;;;;;15.33;11.50;;;6.00;99.90;;;;;;6186817;23;20175;-59
2024/01/18 06:27:56;;;;;;;14.80;10.70;;;6.00;99.90;;;;;;6186851;23;20176;-59
2024/01/18 06:30:24;;;;;;;11.93;10.40;;;6.00;99.90;;;;;;6186977;23;20608;-60
2024/01/18 06:32:51;;;;;;;15.00;11.23;;;5.90;99.90;;;;;;6186593;23;20182;-60
2024/01/18 06:35:18;;;;;;;14.63;11.30;;;5.90;99.90;;;;;;6187117;23;20498;-60
2024/01/18 06:37:45;;;;;;;15.17;10.53;;;5.90;99.90;;;;;;6186439;23;20171;-60
2024/01/18 06:40:13;;;;;;;14.63;10.87;;;5.90;99.90;;;;;;6186819;23;20595;-59
2024/01/18 06:42:40;;;;;;;16.67;12.03;;;5.90;99.90;;;;;;6186558;23;20183;-59
2024/01/18 06:45:08;;;;;;;16.00;12.23;;;5.90;99.90;;;;;;6186862;23;20176;-59
2024/01/18 06:47:36;;;;;;;17.83;12.70;;;5.90;99.90;;;;;;6186331;23;20226;-59
2024/01/18 06:50:03;;;;;;;18.40;12.93;;;5.90;99.90;;;;;;6161261;23;20173;-59
2024/01/18 06:52:30;;;;;;;19.57;12.83;;;5.90;99.90;;;;;;6185988;23;20176;-59
2024/01/18 06:54:57;;;;;;;19.60;13.00;;;5.90;99.90;;;;;;6187081;23;20491;-59
2024/01/18 06:57:24;;;;;;;16.20;12.07;;;5.90;99.90;;;;;;6186212;23;20174;-59
2024/01/18 06:59:52;;;;;;;15.17;11.40;;;5.90;99.90;;;;;;6186792;23;20598;-59
2024/01/18 07:02:22;;;;;;;15.50;11.90;;;5.80;99.90;;;;;;6186508;23;20155;-59
2024/01/18 07:04:49;;;;;;;14.50;10.50;;;5.80;99.90;;;;;;6186521;23;20206;-59
2024/01/18 07:07:16;;;;;;;12.90;10.27;;;5.80;99.90;;;;;;6186501;23;20186;-59
2024/01/18 07:09:43;;;;;;;15.63;10.83;;;5.80;99.90;;;;;;6186597;23;20182;-59
2024/01/18 07:12:10;;;;;;;15.57;10.43;;;5.80;99.90;;;;;;6186272;23;20183;-60
2024/01/18 07:14:39;;;;;;;14.17;10.83;;;5.80;99.90;;;;;;6186544;23;20179;-60
2024/01/18 07:17:06;;;;;;;16.40;11.17;;;5.80;99.90;;;;;;6186266;23;20517;-59
2024/01/18 07:19:33;;;;;;;15.23;11.30;;;5.80;99.90;;;;;;6186335;23;20190;-59
2024/01/18 07:22:02;;;;;;;14.93;11.50;;;5.90;99.90;;;;;;6186165;23;20175;-59
2024/01/18 07:24:30;;;;;;;17.07;11.93;;;5.90;99.90;;;;;;6160301;23;20265;-59
2024/01/18 07:26:58;;;;;;;16.57;11.30;;;5.90;99.90;;;;;;6186601;23;20581;-60
2024/01/18 07:29:25;;;;;;;14.67;10.53;;;5.90;99.90;;;;;;6186019;23;20229;-60
2024/01/18 07:31:52;;;;;;;16.33;10.33;;;5.90;99.90;;;;;;6186270;23;20586;-60
2024/01/18 07:34:19;;;;;;;14.73;9.60;;;6.00;99.90;;;;;;6186376;23;20250;-59
2024/01/18 07:36:47;;;;;;;14.33;9.80;;;6.00;99.90;;;;;;6160361;23;20199;-59
2024/01/18 07:39:15;;;;;;;12.70;9.37;;;6.00;99.90;;;;;;6185781;23;20580;-60
2024/01/18 07:41:43;;;;;;;13.50;9.00;;;6.00;99.90;;;;;;6186188;23;20635;-59
2024/01/18 07:44:10;;;;;;;12.63;8.83;;;6.00;99.90;;;;;;6160081;23;20248;-60
2024/01/18 07:46:38;;;;;;;11.13;8.57;;;6.00;99.90;;;;;;6185670;23;20190;-59
2024/01/18 07:49:05;;;;;;;8.97;7.90;;;6.10;99.90;;;;;;6186267;23;20190;-59
2024/01/18 07:51:32;;;;;;;13.97;8.80;;;6.10;99.90;;;;;;6185352;23;20241;-59
2024/01/18 07:53:59;;;;;;;13.47;9.57;;;6.20;99.90;;;;;;6186722;23;20242;-59
2024/01/18 07:56:28;;;;;;;14.47;9.87;;;6.20;99.90;;;;;;6186213;23;20278;-59
2024/01/18 07:58:55;;;;;;;12.97;9.33;;;6.30;99.90;;;;;;6186507;23;20168;-59
2024/01/18 08:01:22;;;;;;;13.33;9.60;;;6.30;99.90;;;;;;6185952;23;20250;-59
2024/01/18 08:03:49;;;;;;;14.60;10.10;;;6.40;99.90;;;;;;6186133;23;20178;-59
2024/01/18 08:06:16;;;;;;;18.27;11.10;;;6.40;99.90;;;;;;6185369;23;20286;-59
2024/01/18 08:08:43;;;;;;;17.00;11.60;;;6.40;99.90;;;;;;6186755;23;20178;-59
2024/01/18 08:11:14;;;;;;;16.23;11.03;;;6.40;99.90;;;;;;6185647;23;20258;-59
2024/01/18 08:13:41;;;;;;;14.30;10.47;;;6.40;99.90;;;;;;6186519;23;20467;-59
2024/01/18 08:16:09;;;;;;;15.00;9.93;;;6.40;99.90;;;;;;6185835;23;20195;-59
2024/01/18 08:18:36;;;;;;;14.37;10.80;;;6.40;99.90;;;;;;6186169;23;20498;-59
2024/01/18 08:21:04;;;;;;;15.30;10.23;;;6.40;99.90;;;;;;6186242;23;20171;-61
2024/01/18 08:23:36;;;;;;;14.03;10.07;;;6.50;99.90;;;;;;6161369;23;20161;-59
2024/01/18 08:26:03;;;;;;;14.10;10.63;;;6.50;99.90;;;;;;6160034;23;20194;-59
2024/01/18 08:28:32;;;;;;;16.10;10.90;;;6.60;99.90;;;;;;6185899;23;20234;-59
2024/01/18 08:30:59;;;;;;;16.27;11.00;;;6.70;99.90;;;;;;6185874;23;20605;-59
2024/01/18 08:33:26;;;;;;;17.53;10.37;;;6.70;99.90;;;;;;6185707;23;20173;-59
2024/01/18 08:35:53;;;;;;;14.37;10.40;;;6.70;99.90;;;;;;6161422;23;20603;-59
2024/01/18 08:38:20;;;;;;;12.50;9.07;;;6.80;99.90;;;;;;6187560;23;20207;-59
2024/01/18 08:40:48;;;;;;;13.77;9.77;;;6.90;99.90;;;;;;6187735;23;20183;-59
2024/01/18 08:43:15;;;;;;;11.90;9.17;;;6.90;99.90;;;;;;6187902;23;20171;-59
2024/01/18 08:45:42;;;;;;;10.33;8.53;;;7.00;99.90;;;;;;6187789;23;20254;-59
2024/01/18 08:48:10;;;;;;;10.83;9.30;;;7.10;99.90;;;;;;6187686;23;20178;-59
2024/01/18 08:50:37;;;;;;;10.73;8.77;;;7.20;99.90;;;;;;6187961;23;20176;-59
2024/01/18 08:53:06;;;;;;;9.33;8.13;;;7.30;99.90;;;;;;6187884;23;20592;-59
2024/01/18 08:55:37;;;;;;;8.20;7.30;;;7.40;99.90;;;;;;6187400;23;20553;-59
2024/01/18 08:58:06;;;;;;;9.93;7.80;;;7.40;99.90;;;;;;6187754;23;20200;-59
2024/01/18 09:00:34;;;;;;;9.70;8.07;;;7.50;99.90;;;;;;6187436;23;20541;-59
2024/01/18 09:03:01;;;;;;;8.73;7.57;;;7.50;99.90;;;;;;6187858;23;20196;-59
2024/01/18 09:05:29;;;;;;;9.00;7.77;;;7.50;99.90;;;;;;6187290;23;20202;-60
2024/01/18 09:07:57;;;;;;;11.07;8.47;;;7.50;99.90;;;;;;6187784;23;20591;-59
2024/01/18 09:10:26;;;;;;;9.70;7.90;;;7.50;99.90;;;;;;6187309;23;20178;-59
2024/01/18 09:12:53;;;;;;;8.90;7.57;;;7.50;99.90;;;;;;6162157;23;20172;-59
2024/01/18 09:15:20;;;;;;;12.87;8.63;;;7.50;99.90;;;;;;6187325;23;20179;-59
2024/01/18 09:17:47;;;;;;;10.47;7.90;;;7.50;99.90;;;;;;6161418;23;20214;-59
2024/01/18 09:20:15;;;;;;;9.93;8.43;;;7.50;99.90;;;;;;6161116;23;20175;-60
2024/01/18 09:22:42;;;;;;;9.20;8.03;;;7.40;99.90;;;;;;6187458;23;20190;-60
2024/01/18 09:25:10;;;;;;;11.47;8.57;;;7.40;99.90;;;;;;6187703;23;20176;-59
2024/01/18 09:27:37;;;;;;;10.47;8.73;;;7.40;99.90;;;;;;6187479;23;20175;-59
2024/01/18 09:30:05;;;;;;;10.93;8.57;;;7.40;99.90;;;;;;6187827;23;20180;-59
2024/01/18 09:32:32;;;;;;;10.63;8.03;;;7.40;99.90;;;;;;6187213;23;20173;-59
2024/01/18 09:35:00;;;;;;;10.30;8.20;;;7.40;99.90;;;;;;6187379;23;20184;-59
2024/01/18 09:37:28;;;;;;;10.83;8.53;;;7.40;99.90;;;;;;6187549;23;20210;-59
2024/01/18 09:39:55;;;;;;;9.93;8.33;;;7.50;99.90;;;;;;6186867;23;20239;-59
2024/01/18 09:42:25;;;;;;;11.73;9.17;;;7.50;99.90;;;;;;6187435;23;20199;-60
2024/01/18 09:44:55;;;;;;;10.90;8.93;;;7.50;99.90;;;;;;6187281;23;20184;-59
2024/01/18 09:47:22;;;;;;;11.47;9.10;;;7.60;99.90;;;;;;6187104;23;20175;-59
2024/01/18 09:49:51;;;;;;;15.00;9.60;;;7.70;99.90;;;;;;6187330;23;20226;-59
2024/01/18 09:52:18;;;;;;;12.83;10.30;;;7.70;99.90;;;;;;6187681;23;20183;-59
2024/01/18 09:54:46;;;;;;;14.97;9.07;;;7.70;99.90;;;;;;6187080;23;20241;-59
2024/01/18 09:57:17;;;;;;;9.67;8.03;;;7.80;99.90;;;;;;6185940;23;20199;-59
2024/01/18 09:59:47;;;;;;;10.37;8.50;;;7.80;99.90;;;;;;6160751;23;20161;-59
2024/01/18 10:02:14;;;;;;;13.00;9.37;;;7.80;99.80;;;;;;6161038;23;20262;-59
2024/01/18 10:04:41;;;;;;;13.77;9.73;;;7.80;99.80;;;;;;6163118;23;20236;-59
2024/01/18 10:07:08;;;;;;;11.80;10.10;;;7.80;99.90;;;;;;6187044;23;20195;-59
2024/01/18 10:09:36;;;;;;;11.97;8.60;;;7.90;99.90;;;;;;6187368;23;20592;-59
2024/01/18 10:12:04;;;;;;;13.50;9.83;;;8.00;99.80;;;;;;6185927;23;20175;-59
2024/01/18 10:14:42;;;;;;;13.30;9.57;;;7.90;99.60;;;;;;6186995;23;20662;-59
2024/01/18 10:17:29;;;;;;;10.03;8.50;;;8.00;99.60;;;;;;6186971;23;20183;-59
2024/01/18 10:19:58;;;;;;;12.77;9.27;;;8.00;99.50;;;;;;6187125;23;20160;-59
2024/01/18 10:22:25;;;;;;;12.60;9.20;;;7.90;99.10;;;;;;6187357;23;20592;-59
2024/01/18 10:24:52;;;;;;;14.37;10.40;;;7.90;99.00;;;;;;6187031;23;20247;-59
2024/01/18 10:27:21;;;;;;;13.80;10.67;;;7.90;99.10;;;;;;6186853;23;20180;-59
2024/01/18 10:29:51;;;;;;;14.90;10.40;;;7.90;99.30;;;;;;6186397;23;20195;-59
2024/01/18 10:32:18;;;;;;;15.23;11.03;;;8.00;99.30;;;;;;6186876;23;20497;-59
2024/01/18 10:34:46;;;;;;;16.53;11.93;;;8.00;99.40;;;;;;6186579;23;20176;-59
2024/01/18 10:37:15;;;;;;;16.33;11.83;;;8.10;99.40;;;;;;6186009;23;20202;-59
2024/01/18 10:39:45;;;;;;;18.43;12.47;;;8.30;99.50;;;;;;6186494;23;20178;-59
2024/01/18 10:42:14;;;;;;;18.20;12.73;;;8.40;99.40;;;;;;6187000;23;20175;-60
2024/01/18 10:44:43;;;;;;;19.00;12.90;;;8.50;99.40;;;;;;6186430;23;20207;-59
2024/01/18 10:47:12;;;;;;;17.27;13.00;;;8.60;99.30;;;;;;6187252;23;20551;-59
2024/01/18 10:49:42;;;;;;;17.80;12.90;;;8.80;99.20;;;;;;6186004;23;20202;-60
2024/01/18 10:52:11;;;;;;;17.80;13.00;;;8.90;99.10;;;;;;6186029;23;20182;-59
2024/01/18 10:54:38;;;;;;;19.17;13.43;;;9.10;98.90;;;;;;6186801;23;20189;-59
2024/01/18 10:57:21;;;;;;;19.10;13.50;;;9.20;98.70;;;;;;6184348;23;20200;-59
2024/01/18 10:59:48;;;;;;;15.50;13.13;;;9.20;98.50;;;;;;6186163;23;20512;-59
2024/01/18 11:02:16;;;;;;;19.20;14.43;;;9.20;98.40;;;;;;6185924;23;20176;-59
2024/01/18 11:04:46;;;;;;;17.70;13.47;;;9.30;98.40;;;;;;6185843;23;20703;-59
2024/01/18 11:07:15;;;;;;;21.07;14.53;;;9.40;98.30;;;;;;6185640;23;20182;-59
2024/01/18 11:09:42;;;;;;;18.70;13.43;;;9.50;98.40;;;;;;6186096;23;20190;-59
2024/01/18 11:12:13;;;;;;;21.13;14.70;;;9.50;97.90;;;;;;6185846;23;20236;-60
2024/01/18 11:14:42;;;;;;;20.80;14.90;;;9.50;97.80;;;;;;6185956;23;20236;-59
2024/01/18 11:17:17;;;;;;;21.13;14.87;;;9.60;97.80;;;;;;6185148;23;20654;-59
2024/01/18 11:19:45;;;;;;;20.63;15.87;;;9.60;97.80;;;;;;6185991;23;20277;-59
2024/01/18 11:22:31;;;;;;;21.70;15.30;;;9.80;97.70;;;;;;6186334;23;20514;-59
2024/01/18 11:25:03;;;;;;;22.57;15.13;;;9.90;97.60;;;;;;6186048;23;20192;-59
2024/01/18 11:27:39;;;;;;;24.53;17.00;;;9.90;97.40;;;;;;6185971;23;20158;-59
2024/01/18 11:30:11;;;;;;;20.27;15.43;;;10.00;97.20;;;;;;6185891;23;20182;-59
2024/01/18 11:32:39;;;;;;;23.70;16.80;;;10.10;97.20;;;;;;6185354;23;20176;-59
2024/01/18 11:35:08;;;;;;;23.90;16.80;;;10.20;97.20;;;;;;6185986;23;20188;-60
2024/01/18 11:37:36;;;;;;;25.87;17.10;;;10.30;97.10;;;;;;6185436;23;20194;-59
2024/01/18 11:40:06;;;;;;;20.43;16.50;;;10.40;97.00;;;;;;6160298;23;20222;-59
2024/01/18 11:42:34;;;;;;;23.27;17.63;;;10.50;96.90;;;;;;6185395;23;20638;-59
2024/01/18 11:45:13;;;;;;;23.30;17.30;;;10.60;96.60;;;;;;6186073;23;20168;-59
2024/01/18 11:47:41;;;;;;;25.90;18.23;;;10.70;96.50;;;;;;6185566;23;20204;-59
2024/01/18 11:50:11;;;;;;;21.10;16.27;;;10.70;96.40;;;;;;6185438;23;20181;-59
2024/01/18 11:52:43;;;;;;;22.27;16.60;;;10.80;96.30;;;;;;6184855;23;20189;-58
2024/01/18 11:55:11;;;;;;;22.53;16.83;;;10.90;96.10;;;;;;6185629;23;20174;-59
2024/01/18 11:57:39;;;;;;;24.43;17.73;;;11.00;95.80;;;;;;6182566;23;20613;-60
2024/01/18 12:00:06;;;;;;;24.17;18.53;;;11.10;95.60;;;;;;6185114;23;20187;-59
2024/01/18 12:02:42;;;;;;;21.67;16.17;;;11.10;95.50;;;;;;6183563;23;20159;-59
2024/01/18 12:05:10;;;;;;;22.40;17.20;;;11.20;95.30;;;;;;6183505;23;20206;-60
2024/01/18 12:07:38;;;;;;;23.17;17.97;;;11.30;95.20;;;;;;6185356;23;20178;-59
2024/01/18 12:10:07;;;;;;;23.43;16.77;;;11.30;95.10;;;;;;6136913;23;20617;-59
2024/01/18 12:12:36;;;;;;;25.93;16.50;;;11.40;95.10;;;;;;6186360;23;20184;-59
2024/01/18 12:15:03;;;;;;;19.63;14.90;;;11.40;95.10;;;;;;6187957;23;20217;-59
2024/01/18 12:17:31;;;;;;;20.90;15.83;;;11.50;95.00;;;;;;6187183;23;20204;-59
2024/01/18 12:19:59;;;;;;;22.23;17.10;;;11.60;94.70;;;;;;6187387;23;20191;-59
2024/01/18 12:22:26;;;;;;;23.30;16.90;;;11.60;94.50;;;;;;6187571;23;20187;-59
2024/01/18 12:24:53;;;;;;;18.77;15.83;;;11.60;94.30;;;;;;6186712;23;20221;-59
2024/01/18 12:27:21;;;;;;;20.07;16.30;;;11.70;94.30;;;;;;6186930;23;20248;-59
2024/01/18 12:29:48;;;;;;;18.60;15.43;;;11.70;94.10;;;;;;6186892;23;20182;-59
2024/01/18 12:32:18;;;;;;;18.83;15.03;;;11.70;94.10;;;;;;6187043;23;20237;-59
2024/01/18 12:34:45;;;;;;;18.57;15.60;;;11.80;94.10;;;;;;6186679;23;20189;-59
2024/01/18 12:37:13;;;;;;;20.13;16.67;;;11.90;94.00;;;;;;6187002;23;20194;-59
2024/01/18 12:39:41;;;;;;;20.53;15.83;;;11.90;94.00;;;;;;6186654;23;20250;-59
2024/01/18 12:42:08;;;;;;;20.40;16.63;;;11.90;94.00;;;;;;6187709;23;20179;-59